createdAt,value
2022-07-26T00:05:45.964Z,7.82
2022-07-26T00:11:48.072Z,9.55
2022-07-26T00:17:49.837Z,4.95
2022-07-26T00:23:51.870Z,3.95
2022-07-26T00:29:53.582Z,7.47
2022-07-26T00:35:55.428Z,7.75
2022-07-26T00:41:57.170Z,5.95
2022-07-26T00:47:59.014Z,7.50
2022-07-26T00:54:00.878Z,6.20
2022-07-26T01:00:06.340Z,10.55
2022-07-26T01:06:08.770Z,7.63
2022-07-26T01:12:10.764Z,7.47
2022-07-26T01:18:12.583Z,5.43
2022-07-26T01:24:14.459Z,6.22
2022-07-26T01:30:16.295Z,11.15
2022-07-26T01:36:18.592Z,6.38
2022-07-26T01:42:21.121Z,6.45
2022-07-26T01:48:23.332Z,6.32
2022-07-26T01:54:25.069Z,8.00
2022-07-26T02:00:27.412Z,6.22
2022-07-26T02:06:29.194Z,5.93
2022-07-26T02:12:31.456Z,4.65
2022-07-26T02:18:33.317Z,6.55
2022-07-26T02:24:35.162Z,7.82
2022-07-26T02:30:36.996Z,7.38
2022-07-26T02:36:41.166Z,10.25
2022-07-26T02:42:42.944Z,7.25
2022-07-26T02:48:44.707Z,9.95
2022-07-26T02:54:46.545Z,6.93
2022-07-26T03:00:48.755Z,9.40
2022-07-26T03:06:50.621Z,6.70
2022-07-26T03:12:52.402Z,8.20
2022-07-26T03:18:54.444Z,11.18
2022-07-26T03:24:56.318Z,6.95
2022-07-26T03:30:58.447Z,10.20
2022-07-26T03:37:02.874Z,9.70
2022-07-26T03:43:04.721Z,8.60
2022-07-26T03:49:06.593Z,10.02
2022-07-26T03:55:27.789Z,8.35
2022-07-26T04:01:30.173Z,7.45
2022-07-26T04:07:31.970Z,9.63
2022-07-26T04:13:35.407Z,8.88
2022-07-26T04:19:39.767Z,9.30
2022-07-26T04:25:41.944Z,7.22
2022-07-26T04:31:43.712Z,7.00
2022-07-26T04:37:46.355Z,5.78
2022-07-26T04:43:48.078Z,7.35
2022-07-26T04:49:49.895Z,9.75
2022-07-26T04:55:51.708Z,10.30
2022-07-26T05:01:53.490Z,10.25
2022-07-26T05:08:00.518Z,8.07
2022-07-26T05:14:02.378Z,8.68
2022-07-26T05:20:04.751Z,9.43
2022-07-26T05:26:06.941Z,9.13
2022-07-26T05:32:09.047Z,7.93
2022-07-26T05:38:10.952Z,7.07
2022-07-26T05:44:12.699Z,9.82
2022-07-26T05:50:15.503Z,10.15
2022-07-26T05:56:17.253Z,9.52
2022-07-26T06:02:19.177Z,11.07
2022-07-26T06:08:21.672Z,10.98
2022-07-26T06:14:23.451Z,12.73
2022-07-26T06:20:25.260Z,10.98
2022-07-26T06:26:27.032Z,10.35
2022-07-26T06:32:28.753Z,14.25
2022-07-26T06:38:30.541Z,10.35
2022-07-26T06:44:32.359Z,9.90
2022-07-26T06:50:34.129Z,9.07
2022-07-26T06:56:35.838Z,13.52
2022-07-26T07:02:37.648Z,14.75
2022-07-26T07:08:39.619Z,8.93
2022-07-26T07:14:44.573Z,10.32
2022-07-26T07:20:46.386Z,8.48
2022-07-26T07:26:48.175Z,7.78
2022-07-26T07:32:49.986Z,9.32
2022-07-26T07:38:51.906Z,11.02
2022-07-26T07:44:53.684Z,11.60
2022-07-26T07:50:55.496Z,8.88
2022-07-26T07:56:57.410Z,11.70
2022-07-26T08:02:59.233Z,8.90
2022-07-26T08:09:01.370Z,9.95
2022-07-26T08:15:07.351Z,7.88
2022-07-26T08:27:16.135Z,6.28
2022-07-26T08:33:18.458Z,6.22
2022-07-26T08:39:20.200Z,2.20
2022-07-26T08:45:26.952Z,3.97
2022-07-26T08:51:28.724Z,3.63
2022-07-26T08:57:30.546Z,7.63
2022-07-26T09:03:32.755Z,3.45
2022-07-26T09:09:37.141Z,2.42
2022-07-26T09:15:39.037Z,3.70
2022-07-26T09:21:40.886Z,4.10
2022-07-26T09:27:42.632Z,3.20
2022-07-26T09:33:46.442Z,4.25
2022-07-26T09:39:59.155Z,6.03
2022-07-26T09:46:06.246Z,3.15
2022-07-26T09:52:20.269Z,3.33
2022-07-26T09:58:24.742Z,1.95
2022-07-26T10:04:29.427Z,4.13
2022-07-26T10:10:44.156Z,3.80
2022-07-26T10:16:46.019Z,1.52
2022-07-26T10:22:50.423Z,2.47
2022-07-26T10:28:52.362Z,1.88
2022-07-26T10:34:55.251Z,3.42
2022-07-26T10:41:08.349Z,2.45
2022-07-26T10:47:16.376Z,3.28
2022-07-26T10:53:23.985Z,3.78
2022-07-26T10:59:54.941Z,1.02
2022-07-26T11:05:56.038Z,2.45
2022-07-26T11:12:18.184Z,5.03
2022-07-26T11:18:27.756Z,1.83
2022-07-26T11:24:29.699Z,3.08
2022-07-26T11:30:31.654Z,3.38
2022-07-26T11:36:36.900Z,2.80
2022-07-26T11:42:38.690Z,0.93
2022-07-26T11:48:48.547Z,2.33
2022-07-26T11:54:52.212Z,3.13
2022-07-26T12:00:54.077Z,2.60
2022-07-26T12:06:57.830Z,1.95
2022-07-26T12:13:14.089Z,1.88
2022-07-26T12:19:19.314Z,2.08
2022-07-26T12:25:28.594Z,1.65
2022-07-26T12:31:32.966Z,0.95
2022-07-26T12:37:49.813Z,1.92
2022-07-26T12:43:51.797Z,3.45
2022-07-26T12:49:54.710Z,1.17
2022-07-26T12:55:56.550Z,1.43
2022-07-26T13:01:58.439Z,1.75
2022-07-26T13:08:00.331Z,2.67
2022-07-26T13:14:02.043Z,2.13
2022-07-26T13:20:04.674Z,1.17
2022-07-26T13:26:09.245Z,1.63
2022-07-26T13:32:11.961Z,1.80
2022-07-26T13:38:14.312Z,3.70
2022-07-26T13:44:16.574Z,4.00
2022-07-26T13:50:18.351Z,9.05
2022-07-26T13:56:20.491Z,3.67
2022-07-26T14:02:22.459Z,3.08
2022-07-26T14:08:24.382Z,4.80
2022-07-26T14:14:26.119Z,3.88
2022-07-26T14:20:28.156Z,6.00
2022-07-26T14:26:30.120Z,7.82
2022-07-26T14:32:31.946Z,3.47
2022-07-26T14:38:33.807Z,4.10
2022-07-26T14:44:35.549Z,5.30
2022-07-26T14:51:08.157Z,5.68
2022-07-26T14:57:08.969Z,4.45
2022-07-26T15:03:10.852Z,4.43
2022-07-26T15:09:12.621Z,5.18
2022-07-26T15:15:14.350Z,5.05
2022-07-26T15:21:17.245Z,4.82
2022-07-26T15:27:19.260Z,3.47
2022-07-26T15:33:21.232Z,5.47
2022-07-26T15:39:23.089Z,3.05
2022-07-26T15:45:25.390Z,4.28
2022-07-26T15:51:27.637Z,3.40
2022-07-26T15:57:29.603Z,5.88
2022-07-26T16:03:31.489Z,5.57
2022-07-26T16:09:33.285Z,3.15
2022-07-26T16:15:35.145Z,6.05
2022-07-26T16:21:38.038Z,4.20
2022-07-26T16:27:44.071Z,7.50
2022-07-26T16:33:47.263Z,5.43
2022-07-26T16:39:49.841Z,5.68
2022-07-26T16:45:51.715Z,5.78
2022-07-26T16:51:53.718Z,5.32
2022-07-26T16:57:55.530Z,5.25
2022-07-26T17:03:57.899Z,7.10
2022-07-26T17:09:59.830Z,6.28
2022-07-26T17:16:02.458Z,5.40
2022-07-26T17:22:04.778Z,7.25
2022-07-26T17:28:06.523Z,9.40
2022-07-26T17:34:08.416Z,7.28
2022-07-26T17:40:11.468Z,7.50
2022-07-26T17:46:13.745Z,7.40
2022-07-26T17:52:17.192Z,11.63
2022-07-26T17:58:18.960Z,8.38
2022-07-26T18:04:20.722Z,7.93
2022-07-26T18:10:22.680Z,7.22
2022-07-26T18:16:24.521Z,6.93
2022-07-26T18:22:27.275Z,4.82
2022-07-26T18:28:29.225Z,7.43
2022-07-26T18:34:31.027Z,7.47
2022-07-26T18:40:33.742Z,7.47
2022-07-26T18:46:35.590Z,5.13
2022-07-26T18:52:38.957Z,5.22
2022-07-26T18:58:40.720Z,5.28
2022-07-26T19:04:43.624Z,4.60
2022-07-26T19:10:46.416Z,7.95
2022-07-26T19:16:49.996Z,7.03
2022-07-26T19:22:52.295Z,3.35
2022-07-26T19:28:54.237Z,5.03
2022-07-26T19:34:56.679Z,5.18
2022-07-26T19:40:58.992Z,4.93
2022-07-26T19:47:01.167Z,7.32
2022-07-26T19:53:03.383Z,3.75
2022-07-26T19:59:05.096Z,8.15
2022-07-26T20:05:11.699Z,10.07
2022-07-26T20:11:13.523Z,5.55
2022-07-26T20:17:15.926Z,3.72
2022-07-26T20:23:18.163Z,6.20
2022-07-26T20:29:19.908Z,4.10
2022-07-26T20:35:21.824Z,8.45
2022-07-26T20:41:23.515Z,7.53
2022-07-26T20:47:25.305Z,3.03
2022-07-26T20:53:27.105Z,7.85
2022-07-26T20:59:28.906Z,7.93
2022-07-26T21:05:32.624Z,4.35
2022-07-26T21:11:34.678Z,6.30
2022-07-26T21:17:37.056Z,4.82
2022-07-26T21:23:38.820Z,5.30
2022-07-26T21:29:40.565Z,2.45
2022-07-26T21:35:42.617Z,5.63
2022-07-26T21:41:44.601Z,3.30
2022-07-26T21:47:46.365Z,3.88
2022-07-26T21:53:48.472Z,6.75
2022-07-26T21:59:50.929Z,5.32
2022-07-26T22:05:52.666Z,6.00
2022-07-26T22:11:55.854Z,7.50
2022-07-26T22:18:00.031Z,4.80
2022-07-26T22:30:04.249Z,4.30
2022-07-26T22:36:06.153Z,5.45
2022-07-26T22:42:16.139Z,3.53
2022-07-26T22:48:18.222Z,5.95
2022-07-26T22:54:19.923Z,5.72
2022-07-26T23:00:21.971Z,3.63
2022-07-26T23:06:32.057Z,4.03
2022-07-26T23:12:34.326Z,5.43
2022-07-26T23:18:36.285Z,2.90
2022-07-26T23:24:38.075Z,7.40
2022-07-26T23:36:43.906Z,4.57
2022-07-26T23:42:45.615Z,5.55
2022-07-26T23:48:47.564Z,2.92
2022-07-26T23:54:49.367Z,13.00
